sensor_id;sensor_type;location;lat;lon;timestamp;pressure;altitude;pressure_sealevel;temperature
80581;BMP180;1474;51.460;7.150;2023-07-29T00:01:18;99772.00;;;18.10
80581;BMP180;1474;51.460;7.150;2023-07-29T00:03:44;99769.00;;;18.10
80581;BMP180;1474;51.460;7.150;2023-07-29T00:06:10;99772.00;;;18.10
80581;BMP180;1474;51.460;7.150;2023-07-29T00:08:36;99758.00;;;18.10
80581;BMP180;1474;51.460;7.150;2023-07-29T00:11:02;99761.00;;;18.10
80581;BMP180;1474;51.460;7.150;2023-07-29T00:13:28;99760.00;;;18.10
80581;BMP180;1474;51.460;7.150;2023-07-29T00:15:55;99758.00;;;18.10
80581;BMP180;1474;51.460;7.150;2023-07-29T00:18:22;99761.00;;;18.00
80581;BMP180;1474;51.460;7.150;2023-07-29T00:20:53;99763.00;;;18.10
80581;BMP180;1474;51.460;7.150;2023-07-29T00:23:19;99758.00;;;18.10
80581;BMP180;1474;51.460;7.150;2023-07-29T00:25:45;99753.00;;;18.10
80581;BMP180;1474;51.460;7.150;2023-07-29T00:28:12;99757.00;;;18.20
80581;BMP180;1474;51.460;7.150;2023-07-29T00:30:38;99758.00;;;18.20
80581;BMP180;1474;51.460;7.150;2023-07-29T00:33:04;99751.00;;;18.20
80581;BMP180;1474;51.460;7.150;2023-07-29T00:35:30;99742.00;;;18.10
80581;BMP180;1474;51.460;7.150;2023-07-29T00:37:56;99746.00;;;18.20
80581;BMP180;1474;51.460;7.150;2023-07-29T00:40:22;99741.00;;;18.20
80581;BMP180;1474;51.460;7.150;2023-07-29T00:42:49;99746.00;;;18.20
80581;BMP180;1474;51.460;7.150;2023-07-29T00:45:19;99742.00;;;18.20
80581;BMP180;1474;51.460;7.150;2023-07-29T00:47:45;99741.00;;;18.10
80581;BMP180;1474;51.460;7.150;2023-07-29T00:50:14;99741.00;;;18.10
80581;BMP180;1474;51.460;7.150;2023-07-29T00:52:41;99742.00;;;18.20
80581;BMP180;1474;51.460;7.150;2023-07-29T00:55:07;99739.00;;;18.20
80581;BMP180;1474;51.460;7.150;2023-07-29T00:57:35;99737.00;;;18.20
80581;BMP180;1474;51.460;7.150;2023-07-29T01:00:02;99737.00;;;18.20
80581;BMP180;1474;51.460;7.150;2023-07-29T01:02:28;99729.00;;;18.10
80581;BMP180;1474;51.460;7.150;2023-07-29T01:04:58;99719.00;;;18.10
80581;BMP180;1474;51.460;7.150;2023-07-29T01:11:08;99716.00;;;18.10
80581;BMP180;1474;51.460;7.150;2023-07-29T01:13:44;99709.00;;;18.00
80581;BMP180;1474;51.460;7.150;2023-07-29T01:16:26;99711.00;;;17.90
80581;BMP180;1474;51.460;7.150;2023-07-29T01:18:56;99711.00;;;18.00
80581;BMP180;1474;51.460;7.150;2023-07-29T01:21:26;99717.00;;;17.80
80581;BMP180;1474;51.460;7.150;2023-07-29T01:23:53;99712.00;;;17.90
80581;BMP180;1474;51.460;7.150;2023-07-29T01:26:19;99704.00;;;17.80
80581;BMP180;1474;51.460;7.150;2023-07-29T01:28:45;99716.00;;;17.90
80581;BMP180;1474;51.460;7.150;2023-07-29T01:31:23;99715.00;;;17.90
80581;BMP180;1474;51.460;7.150;2023-07-29T01:34:13;99712.00;;;17.90
80581;BMP180;1474;51.460;7.150;2023-07-29T01:36:43;99720.00;;;17.90
80581;BMP180;1474;51.460;7.150;2023-07-29T01:39:11;99717.00;;;17.90
80581;BMP180;1474;51.460;7.150;2023-07-29T01:41:39;99699.00;;;17.90
80581;BMP180;1474;51.460;7.150;2023-07-29T01:44:06;99701.00;;;18.00
80581;BMP180;1474;51.460;7.150;2023-07-29T01:46:34;99689.00;;;17.90
80581;BMP180;1474;51.460;7.150;2023-07-29T01:49:00;99689.00;;;17.90
80581;BMP180;1474;51.460;7.150;2023-07-29T01:51:26;99691.00;;;17.90
80581;BMP180;1474;51.460;7.150;2023-07-29T01:53:51;99698.00;;;17.90
80581;BMP180;1474;51.460;7.150;2023-07-29T01:56:17;99698.00;;;17.90
80581;BMP180;1474;51.460;7.150;2023-07-29T01:58:43;99700.00;;;17.90
80581;BMP180;1474;51.460;7.150;2023-07-29T02:01:09;99700.00;;;18.00
80581;BMP180;1474;51.460;7.150;2023-07-29T02:03:35;99691.00;;;18.00
80581;BMP180;1474;51.460;7.150;2023-07-29T02:06:01;99697.00;;;18.00
80581;BMP180;1474;51.460;7.150;2023-07-29T02:08:27;99701.00;;;18.00
80581;BMP180;1474;51.460;7.150;2023-07-29T02:10:52;99691.00;;;18.00
80581;BMP180;1474;51.460;7.150;2023-07-29T02:13:18;99687.00;;;18.00
80581;BMP180;1474;51.460;7.150;2023-07-29T02:15:44;99687.00;;;18.00
80581;BMP180;1474;51.460;7.150;2023-07-29T02:18:10;99680.00;;;18.00
80581;BMP180;1474;51.460;7.150;2023-07-29T02:20:36;99670.00;;;18.00
80581;BMP180;1474;51.460;7.150;2023-07-29T02:23:02;99668.00;;;18.00
80581;BMP180;1474;51.460;7.150;2023-07-29T02:25:28;99667.00;;;18.00
80581;BMP180;1474;51.460;7.150;2023-07-29T02:27:53;99658.00;;;18.00
80581;BMP180;1474;51.460;7.150;2023-07-29T02:30:21;99659.00;;;18.00
80581;BMP180;1474;51.460;7.150;2023-07-29T02:32:49;99656.00;;;18.00
80581;BMP180;1474;51.460;7.150;2023-07-29T02:35:15;99648.00;;;18.00
80581;BMP180;1474;51.460;7.150;2023-07-29T02:37:41;99644.00;;;18.00
80581;BMP180;1474;51.460;7.150;2023-07-29T02:40:07;99649.00;;;17.90
80581;BMP180;1474;51.460;7.150;2023-07-29T02:42:33;99664.00;;;18.00
80581;BMP180;1474;51.460;7.150;2023-07-29T02:44:59;99661.00;;;18.00
80581;BMP180;1474;51.460;7.150;2023-07-29T02:47:27;99655.00;;;18.00
80581;BMP180;1474;51.460;7.150;2023-07-29T02:49:56;99661.00;;;18.00
80581;BMP180;1474;51.460;7.150;2023-07-29T02:52:22;99661.00;;;18.00
80581;BMP180;1474;51.460;7.150;2023-07-29T02:54:48;99656.00;;;18.00
80581;BMP180;1474;51.460;7.150;2023-07-29T02:57:14;99659.00;;;18.00
80581;BMP180;1474;51.460;7.150;2023-07-29T02:59:40;99655.00;;;18.00
80581;BMP180;1474;51.460;7.150;2023-07-29T03:02:09;99658.00;;;17.90
80581;BMP180;1474;51.460;7.150;2023-07-29T03:04:35;99655.00;;;18.00
80581;BMP180;1474;51.460;7.150;2023-07-29T03:07:01;99659.00;;;18.00
80581;BMP180;1474;51.460;7.150;2023-07-29T03:09:27;99666.00;;;18.00
80581;BMP180;1474;51.460;7.150;2023-07-29T03:11:53;99671.00;;;18.00
80581;BMP180;1474;51.460;7.150;2023-07-29T03:14:20;99676.00;;;18.00
80581;BMP180;1474;51.460;7.150;2023-07-29T03:16:46;99678.00;;;18.00
80581;BMP180;1474;51.460;7.150;2023-07-29T03:19:12;99681.00;;;18.00
80581;BMP180;1474;51.460;7.150;2023-07-29T03:21:41;99683.00;;;18.00
80581;BMP180;1474;51.460;7.150;2023-07-29T03:24:07;99683.00;;;18.00
80581;BMP180;1474;51.460;7.150;2023-07-29T03:26:33;99675.00;;;18.00
80581;BMP180;1474;51.460;7.150;2023-07-29T03:28:58;99663.00;;;18.00
80581;BMP180;1474;51.460;7.150;2023-07-29T03:31:24;99669.00;;;18.00
80581;BMP180;1474;51.460;7.150;2023-07-29T03:33:50;99667.00;;;18.00
80581;BMP180;1474;51.460;7.150;2023-07-29T03:36:16;99670.00;;;18.00
80581;BMP180;1474;51.460;7.150;2023-07-29T03:38:42;99668.00;;;18.00
80581;BMP180;1474;51.460;7.150;2023-07-29T03:41:10;99667.00;;;18.00
80581;BMP180;1474;51.460;7.150;2023-07-29T03:43:36;99667.00;;;18.00
80581;BMP180;1474;51.460;7.150;2023-07-29T03:46:02;99668.00;;;18.00
80581;BMP180;1474;51.460;7.150;2023-07-29T03:48:28;99660.00;;;18.10
80581;BMP180;1474;51.460;7.150;2023-07-29T03:50:57;99662.00;;;18.10
80581;BMP180;1474;51.460;7.150;2023-07-29T03:53:23;99665.00;;;18.10
80581;BMP180;1474;51.460;7.150;2023-07-29T03:55:49;99658.00;;;18.00
80581;BMP180;1474;51.460;7.150;2023-07-29T03:58:16;99663.00;;;18.00
80581;BMP180;1474;51.460;7.150;2023-07-29T04:00:41;99660.00;;;18.00
80581;BMP180;1474;51.460;7.150;2023-07-29T04:03:08;99648.00;;;18.00
80581;BMP180;1474;51.460;7.150;2023-07-29T04:05:34;99645.00;;;18.00
80581;BMP180;1474;51.460;7.150;2023-07-29T04:08:00;99644.00;;;18.00
80581;BMP180;1474;51.460;7.150;2023-07-29T04:10:28;99640.00;;;18.10
80581;BMP180;1474;51.460;7.150;2023-07-29T04:13:06;99633.00;;;18.00
80581;BMP180;1474;51.460;7.150;2023-07-29T04:15:32;99645.00;;;18.10
80581;BMP180;1474;51.460;7.150;2023-07-29T04:17:58;99633.00;;;18.00
80581;BMP180;1474;51.460;7.150;2023-07-29T04:20:24;99641.00;;;18.10
80581;BMP180;1474;51.460;7.150;2023-07-29T04:22:50;99646.00;;;18.10
80581;BMP180;1474;51.460;7.150;2023-07-29T04:25:16;99647.00;;;18.10
80581;BMP180;1474;51.460;7.150;2023-07-29T04:27:42;99649.00;;;18.10
80581;BMP180;1474;51.460;7.150;2023-07-29T04:30:08;99645.00;;;18.10
80581;BMP180;1474;51.460;7.150;2023-07-29T04:32:36;99642.00;;;18.10
80581;BMP180;1474;51.460;7.150;2023-07-29T04:35:02;99640.00;;;18.20
80581;BMP180;1474;51.460;7.150;2023-07-29T04:37:28;99649.00;;;18.20
80581;BMP180;1474;51.460;7.150;2023-07-29T04:39:54;99659.00;;;18.20
80581;BMP180;1474;51.460;7.150;2023-07-29T04:42:20;99672.00;;;18.20
80581;BMP180;1474;51.460;7.150;2023-07-29T04:44:46;99671.00;;;18.20
80581;BMP180;1474;51.460;7.150;2023-07-29T04:47:12;99677.00;;;18.20
80581;BMP180;1474;51.460;7.150;2023-07-29T04:49:41;99678.00;;;18.10
80581;BMP180;1474;51.460;7.150;2023-07-29T04:52:07;99671.00;;;18.20
80581;BMP180;1474;51.460;7.150;2023-07-29T04:54:33;99688.00;;;18.10
80581;BMP180;1474;51.460;7.150;2023-07-29T04:56:59;99691.00;;;18.10
80581;BMP180;1474;51.460;7.150;2023-07-29T04:59:25;99699.00;;;18.00
80581;BMP180;1474;51.460;7.150;2023-07-29T05:01:51;99689.00;;;18.10
80581;BMP180;1474;51.460;7.150;2023-07-29T05:04:17;99692.00;;;18.00
80581;BMP180;1474;51.460;7.150;2023-07-29T05:06:42;99700.00;;;18.00
80581;BMP180;1474;51.460;7.150;2023-07-29T05:09:19;99697.00;;;18.00
80581;BMP180;1474;51.460;7.150;2023-07-29T05:11:47;99702.00;;;18.00
80581;BMP180;1474;51.460;7.150;2023-07-29T05:14:16;99688.00;;;18.00
80581;BMP180;1474;51.460;7.150;2023-07-29T05:16:42;99676.00;;;18.10
80581;BMP180;1474;51.460;7.150;2023-07-29T05:19:08;99674.00;;;18.10
80581;BMP180;1474;51.460;7.150;2023-07-29T05:21:35;99670.00;;;18.10
80581;BMP180;1474;51.460;7.150;2023-07-29T05:24:00;99650.00;;;18.20
80581;BMP180;1474;51.460;7.150;2023-07-29T05:26:26;99643.00;;;18.30
80581;BMP180;1474;51.460;7.150;2023-07-29T05:28:52;99648.00;;;18.50
80581;BMP180;1474;51.460;7.150;2023-07-29T05:31:22;99641.00;;;18.60
80581;BMP180;1474;51.460;7.150;2023-07-29T05:33:48;99642.00;;;18.70
80581;BMP180;1474;51.460;7.150;2023-07-29T05:36:14;99643.00;;;18.70
80581;BMP180;1474;51.460;7.150;2023-07-29T05:38:41;99647.00;;;18.70
80581;BMP180;1474;51.460;7.150;2023-07-29T05:41:07;99655.00;;;18.80
80581;BMP180;1474;51.460;7.150;2023-07-29T05:43:33;99665.00;;;18.70
80581;BMP180;1474;51.460;7.150;2023-07-29T05:45:59;99681.00;;;18.60
80581;BMP180;1474;51.460;7.150;2023-07-29T05:48:24;99688.00;;;18.50
80581;BMP180;1474;51.460;7.150;2023-07-29T05:50:50;99691.00;;;18.40
80581;BMP180;1474;51.460;7.150;2023-07-29T05:53:16;99701.00;;;18.40
80581;BMP180;1474;51.460;7.150;2023-07-29T05:55:42;99704.00;;;18.40
80581;BMP180;1474;51.460;7.150;2023-07-29T05:58:08;99719.00;;;18.20
80581;BMP180;1474;51.460;7.150;2023-07-29T06:00:35;99720.00;;;18.10
80581;BMP180;1474;51.460;7.150;2023-07-29T06:03:00;99718.00;;;18.00
80581;BMP180;1474;51.460;7.150;2023-07-29T06:05:26;99725.00;;;17.90
80581;BMP180;1474;51.460;7.150;2023-07-29T06:07:52;99721.00;;;18.00
80581;BMP180;1474;51.460;7.150;2023-07-29T06:10:18;99726.00;;;18.00
80581;BMP180;1474;51.460;7.150;2023-07-29T06:12:45;99724.00;;;18.00
80581;BMP180;1474;51.460;7.150;2023-07-29T06:15:11;99731.00;;;17.90
80581;BMP180;1474;51.460;7.150;2023-07-29T06:17:38;99726.00;;;17.90
80581;BMP180;1474;51.460;7.150;2023-07-29T06:20:05;99735.00;;;17.90
80581;BMP180;1474;51.460;7.150;2023-07-29T06:22:31;99734.00;;;18.00
80581;BMP180;1474;51.460;7.150;2023-07-29T06:24:57;99731.00;;;18.00
80581;BMP180;1474;51.460;7.150;2023-07-29T06:27:25;99744.00;;;18.10
80581;BMP180;1474;51.460;7.150;2023-07-29T06:29:51;99753.00;;;18.10
80581;BMP180;1474;51.460;7.150;2023-07-29T06:32:17;99763.00;;;18.10
80581;BMP180;1474;51.460;7.150;2023-07-29T06:34:42;99769.00;;;18.00
80581;BMP180;1474;51.460;7.150;2023-07-29T06:37:08;99763.00;;;17.90
80581;BMP180;1474;51.460;7.150;2023-07-29T06:39:34;99761.00;;;17.90
80581;BMP180;1474;51.460;7.150;2023-07-29T06:42:00;99773.00;;;17.90
80581;BMP180;1474;51.460;7.150;2023-07-29T06:44:25;99758.00;;;17.90
80581;BMP180;1474;51.460;7.150;2023-07-29T06:46:51;99766.00;;;17.90
80581;BMP180;1474;51.460;7.150;2023-07-29T06:49:17;99759.00;;;17.90
80581;BMP180;1474;51.460;7.150;2023-07-29T06:51:43;99772.00;;;17.90
80581;BMP180;1474;51.460;7.150;2023-07-29T06:54:08;99768.00;;;18.00
80581;BMP180;1474;51.460;7.150;2023-07-29T06:56:34;99767.00;;;18.00
80581;BMP180;1474;51.460;7.150;2023-07-29T06:59:00;99764.00;;;18.00
80581;BMP180;1474;51.460;7.150;2023-07-29T07:01:26;99764.00;;;17.90
80581;BMP180;1474;51.460;7.150;2023-07-29T07:03:51;99766.00;;;18.00
80581;BMP180;1474;51.460;7.150;2023-07-29T07:06:23;99758.00;;;18.10
80581;BMP180;1474;51.460;7.150;2023-07-29T07:08:50;99771.00;;;18.20
80581;BMP180;1474;51.460;7.150;2023-07-29T07:11:18;99753.00;;;18.20
80581;BMP180;1474;51.460;7.150;2023-07-29T07:13:44;99764.00;;;18.30
80581;BMP180;1474;51.460;7.150;2023-07-29T07:16:10;99757.00;;;18.40
80581;BMP180;1474;51.460;7.150;2023-07-29T07:18:36;99762.00;;;18.30
80581;BMP180;1474;51.460;7.150;2023-07-29T07:21:01;99757.00;;;18.40
80581;BMP180;1474;51.460;7.150;2023-07-29T07:23:27;99769.00;;;18.40
80581;BMP180;1474;51.460;7.150;2023-07-29T07:25:53;99762.00;;;18.50
80581;BMP180;1474;51.460;7.150;2023-07-29T07:28:19;99770.00;;;18.60
80581;BMP180;1474;51.460;7.150;2023-07-29T07:30:44;99755.00;;;19.10
80581;BMP180;1474;51.460;7.150;2023-07-29T07:33:10;99747.00;;;19.60
80581;BMP180;1474;51.460;7.150;2023-07-29T07:35:36;99755.00;;;19.70
80581;BMP180;1474;51.460;7.150;2023-07-29T07:38:02;99754.00;;;19.70
80581;BMP180;1474;51.460;7.150;2023-07-29T07:40:31;99776.00;;;19.60
80581;BMP180;1474;51.460;7.150;2023-07-29T07:42:57;99750.00;;;19.50
80581;BMP180;1474;51.460;7.150;2023-07-29T07:45:22;99754.00;;;20.10
80581;BMP180;1474;51.460;7.150;2023-07-29T07:47:48;99761.00;;;20.40
80581;BMP180;1474;51.460;7.150;2023-07-29T07:50:14;99749.00;;;20.20
80581;BMP180;1474;51.460;7.150;2023-07-29T07:52:40;99741.00;;;20.20
80581;BMP180;1474;51.460;7.150;2023-07-29T07:55:06;99753.00;;;20.60
80581;BMP180;1474;51.460;7.150;2023-07-29T07:57:32;99753.00;;;21.00
80581;BMP180;1474;51.460;7.150;2023-07-29T07:59:58;99749.00;;;20.20
80581;BMP180;1474;51.460;7.150;2023-07-29T08:02:23;99755.00;;;20.00
80581;BMP180;1474;51.460;7.150;2023-07-29T08:04:49;99768.00;;;20.10
80581;BMP180;1474;51.460;7.150;2023-07-29T08:07:15;99758.00;;;19.90
80581;BMP180;1474;51.460;7.150;2023-07-29T08:09:41;99745.00;;;19.90
80581;BMP180;1474;51.460;7.150;2023-07-29T08:12:07;99742.00;;;20.80
80581;BMP180;1474;51.460;7.150;2023-07-29T08:14:32;99771.00;;;21.30
80581;BMP180;1474;51.460;7.150;2023-07-29T08:16:58;99745.00;;;20.90
80581;BMP180;1474;51.460;7.150;2023-07-29T08:19:24;99753.00;;;21.10
80581;BMP180;1474;51.460;7.150;2023-07-29T08:21:50;99765.00;;;21.00
80581;BMP180;1474;51.460;7.150;2023-07-29T08:24:16;99774.00;;;21.30
80581;BMP180;1474;51.460;7.150;2023-07-29T08:26:42;99752.00;;;20.90
80581;BMP180;1474;51.460;7.150;2023-07-29T08:29:08;99757.00;;;21.10
80581;BMP180;1474;51.460;7.150;2023-07-29T08:31:33;99750.00;;;21.40
80581;BMP180;1474;51.460;7.150;2023-07-29T08:34:00;99734.00;;;22.20
80581;BMP180;1474;51.460;7.150;2023-07-29T08:36:26;99764.00;;;22.10
80581;BMP180;1474;51.460;7.150;2023-07-29T08:38:52;99752.00;;;21.80
80581;BMP180;1474;51.460;7.150;2023-07-29T08:41:44;99745.00;;;21.80
80581;BMP180;1474;51.460;7.150;2023-07-29T08:44:26;99784.00;;;22.10
80581;BMP180;1474;51.460;7.150;2023-07-29T08:46:56;99750.00;;;21.70
80581;BMP180;1474;51.460;7.150;2023-07-29T08:49:23;99761.00;;;21.80
80581;BMP180;1474;51.460;7.150;2023-07-29T08:51:53;99753.00;;;22.20
80581;BMP180;1474;51.460;7.150;2023-07-29T08:54:19;99765.00;;;22.40
80581;BMP180;1474;51.460;7.150;2023-07-29T08:56:45;99757.00;;;21.90
80581;BMP180;1474;51.460;7.150;2023-07-29T08:59:13;99743.00;;;22.00
80581;BMP180;1474;51.460;7.150;2023-07-29T09:01:40;99735.00;;;22.40
80581;BMP180;1474;51.460;7.150;2023-07-29T09:04:06;99759.00;;;22.40
80581;BMP180;1474;51.460;7.150;2023-07-29T09:06:34;99760.00;;;21.90
80581;BMP180;1474;51.460;7.150;2023-07-29T09:09:01;99731.00;;;22.20
80581;BMP180;1474;51.460;7.150;2023-07-29T09:11:28;99736.00;;;22.50
80581;BMP180;1474;51.460;7.150;2023-07-29T09:13:54;99728.00;;;22.80
80581;BMP180;1474;51.460;7.150;2023-07-29T09:16:21;99748.00;;;23.40
80581;BMP180;1474;51.460;7.150;2023-07-29T09:18:51;99762.00;;;23.00
80581;BMP180;1474;51.460;7.150;2023-07-29T09:21:18;99752.00;;;23.20
80581;BMP180;1474;51.460;7.150;2023-07-29T09:23:50;99773.00;;;22.70
80581;BMP180;1474;51.460;7.150;2023-07-29T09:26:26;99778.00;;;22.60
80581;BMP180;1474;51.460;7.150;2023-07-29T09:28:56;99779.00;;;22.20
80581;BMP180;1474;51.460;7.150;2023-07-29T09:31:25;99752.00;;;22.10
80581;BMP180;1474;51.460;7.150;2023-07-29T09:33:59;99753.00;;;22.60
80581;BMP180;1474;51.460;7.150;2023-07-29T09:36:26;99747.00;;;23.30
80581;BMP180;1474;51.460;7.150;2023-07-29T09:38:56;99750.00;;;23.90
80581;BMP180;1474;51.460;7.150;2023-07-29T09:41:27;99730.00;;;23.90
80581;BMP180;1474;51.460;7.150;2023-07-29T09:43:59;99756.00;;;24.20
80581;BMP180;1474;51.460;7.150;2023-07-29T09:46:34;99756.00;;;23.40
80581;BMP180;1474;51.460;7.150;2023-07-29T09:49:03;99775.00;;;23.40
80581;BMP180;1474;51.460;7.150;2023-07-29T09:51:29;99774.00;;;23.00
80581;BMP180;1474;51.460;7.150;2023-07-29T09:53:55;99788.00;;;22.60
80581;BMP180;1474;51.460;7.150;2023-07-29T09:56:26;99785.00;;;22.40
80581;BMP180;1474;51.460;7.150;2023-07-29T09:58:55;99788.00;;;22.30
80581;BMP180;1474;51.460;7.150;2023-07-29T10:01:23;99789.00;;;22.50
80581;BMP180;1474;51.460;7.150;2023-07-29T10:03:49;99793.00;;;22.40
80581;BMP180;1474;51.460;7.150;2023-07-29T10:06:17;99791.00;;;22.20
80581;BMP180;1474;51.460;7.150;2023-07-29T10:08:43;99790.00;;;22.10
80581;BMP180;1474;51.460;7.150;2023-07-29T10:11:11;99801.00;;;22.20
80581;BMP180;1474;51.460;7.150;2023-07-29T10:13:37;99790.00;;;22.20
80581;BMP180;1474;51.460;7.150;2023-07-29T10:16:04;99795.00;;;22.50
80581;BMP180;1474;51.460;7.150;2023-07-29T10:18:32;99784.00;;;22.40
80581;BMP180;1474;51.460;7.150;2023-07-29T10:21:00;99783.00;;;22.60
80581;BMP180;1474;51.460;7.150;2023-07-29T10:23:30;99764.00;;;23.50
80581;BMP180;1474;51.460;7.150;2023-07-29T10:26:10;99767.00;;;23.70
80581;BMP180;1474;51.460;7.150;2023-07-29T10:28:41;99777.00;;;23.40
80581;BMP180;1474;51.460;7.150;2023-07-29T10:31:08;99767.00;;;23.80
80581;BMP180;1474;51.460;7.150;2023-07-29T10:33:36;99759.00;;;23.80
80581;BMP180;1474;51.460;7.150;2023-07-29T10:36:03;99774.00;;;23.60
80581;BMP180;1474;51.460;7.150;2023-07-29T10:38:30;99753.00;;;23.80
80581;BMP180;1474;51.460;7.150;2023-07-29T10:40:57;99767.00;;;23.40
80581;BMP180;1474;51.460;7.150;2023-07-29T10:45:56;99754.00;;;24.90
80581;BMP180;1474;51.460;7.150;2023-07-29T10:51:26;99735.00;;;23.60
80581;BMP180;1474;51.460;7.150;2023-07-29T10:54:00;99775.00;;;24.70
80581;BMP180;1474;51.460;7.150;2023-07-29T10:56:47;99789.00;;;23.30
80581;BMP180;1474;51.460;7.150;2023-07-29T11:02:03;99791.00;;;22.80
80581;BMP180;1474;51.460;7.150;2023-07-29T11:04:50;99798.00;;;22.70
80581;BMP180;1474;51.460;7.150;2023-07-29T11:17:48;99762.00;;;23.40
80581;BMP180;1474;51.460;7.150;2023-07-29T11:20:17;99784.00;;;23.10
80581;BMP180;1474;51.460;7.150;2023-07-29T11:22:43;99762.00;;;23.50
80581;BMP180;1474;51.460;7.150;2023-07-29T11:25:12;99739.00;;;24.10
80581;BMP180;1474;51.460;7.150;2023-07-29T11:27:39;99756.00;;;24.10
80581;BMP180;1474;51.460;7.150;2023-07-29T11:30:09;99724.00;;;24.30
80581;BMP180;1474;51.460;7.150;2023-07-29T11:32:38;99768.00;;;24.20
80581;BMP180;1474;51.460;7.150;2023-07-29T11:37:34;99779.00;;;23.40
80581;BMP180;1474;51.460;7.150;2023-07-29T11:40:00;99778.00;;;23.20
80581;BMP180;1474;51.460;7.150;2023-07-29T11:42:28;99772.00;;;22.90
80581;BMP180;1474;51.460;7.150;2023-07-29T11:44:57;99760.00;;;23.00
80581;BMP180;1474;51.460;7.150;2023-07-29T11:47:25;99773.00;;;23.00
80581;BMP180;1474;51.460;7.150;2023-07-29T11:49:51;99764.00;;;23.30
80581;BMP180;1474;51.460;7.150;2023-07-29T11:52:18;99775.00;;;23.50
80581;BMP180;1474;51.460;7.150;2023-07-29T11:54:49;99780.00;;;23.30
80581;BMP180;1474;51.460;7.150;2023-07-29T11:57:16;99769.00;;;23.10
80581;BMP180;1474;51.460;7.150;2023-07-29T11:59:42;99774.00;;;23.20
80581;BMP180;1474;51.460;7.150;2023-07-29T12:02:14;99778.00;;;22.70
80581;BMP180;1474;51.460;7.150;2023-07-29T12:04:43;99789.00;;;22.50
80581;BMP180;1474;51.460;7.150;2023-07-29T12:07:10;99779.00;;;22.30
80581;BMP180;1474;51.460;7.150;2023-07-29T12:09:37;99779.00;;;22.30
80581;BMP180;1474;51.460;7.150;2023-07-29T12:12:04;99741.00;;;23.30
80581;BMP180;1474;51.460;7.150;2023-07-29T12:14:31;99729.00;;;24.10
80581;BMP180;1474;51.460;7.150;2023-07-29T12:17:01;99745.00;;;24.40
80581;BMP180;1474;51.460;7.150;2023-07-29T12:19:37;99755.00;;;24.00
80581;BMP180;1474;51.460;7.150;2023-07-29T12:22:07;99760.00;;;23.60
80581;BMP180;1474;51.460;7.150;2023-07-29T12:24:36;99758.00;;;23.10
80581;BMP180;1474;51.460;7.150;2023-07-29T12:27:02;99719.00;;;23.80
80581;BMP180;1474;51.460;7.150;2023-07-29T12:29:28;99746.00;;;24.20
80581;BMP180;1474;51.460;7.150;2023-07-29T12:32:02;99742.00;;;23.60
80581;BMP180;1474;51.460;7.150;2023-07-29T12:34:31;99746.00;;;24.10
80581;BMP180;1474;51.460;7.150;2023-07-29T12:36:59;99760.00;;;24.20
80581;BMP180;1474;51.460;7.150;2023-07-29T12:39:30;99741.00;;;24.40
80581;BMP180;1474;51.460;7.150;2023-07-29T12:41:58;99757.00;;;24.50
80581;BMP180;1474;51.460;7.150;2023-07-29T12:44:30;99761.00;;;23.90
80581;BMP180;1474;51.460;7.150;2023-07-29T12:46:56;99762.00;;;24.00
80581;BMP180;1474;51.460;7.150;2023-07-29T12:49:22;99787.00;;;23.70
80581;BMP180;1474;51.460;7.150;2023-07-29T12:51:48;99780.00;;;23.10
80581;BMP180;1474;51.460;7.150;2023-07-29T12:54:14;99786.00;;;22.70
80581;BMP180;1474;51.460;7.150;2023-07-29T12:56:40;99774.00;;;22.40
80581;BMP180;1474;51.460;7.150;2023-07-29T12:59:06;99748.00;;;22.50
80581;BMP180;1474;51.460;7.150;2023-07-29T13:01:32;99738.00;;;24.10
80581;BMP180;1474;51.460;7.150;2023-07-29T13:03:58;99724.00;;;24.50
80581;BMP180;1474;51.460;7.150;2023-07-29T13:06:24;99734.00;;;25.30
80581;BMP180;1474;51.460;7.150;2023-07-29T13:08:50;99763.00;;;25.40
80581;BMP180;1474;51.460;7.150;2023-07-29T13:11:16;99737.00;;;24.70
80581;BMP180;1474;51.460;7.150;2023-07-29T13:13:42;99752.00;;;24.50
80581;BMP180;1474;51.460;7.150;2023-07-29T13:16:09;99758.00;;;25.10
80581;BMP180;1474;51.460;7.150;2023-07-29T13:18:35;99765.00;;;24.90
80581;BMP180;1474;51.460;7.150;2023-07-29T13:21:01;99760.00;;;24.50
80581;BMP180;1474;51.460;7.150;2023-07-29T13:23:27;99749.00;;;24.50
80581;BMP180;1474;51.460;7.150;2023-07-29T13:25:55;99748.00;;;24.40
80581;BMP180;1474;51.460;7.150;2023-07-29T13:28:22;99751.00;;;24.10
80581;BMP180;1474;51.460;7.150;2023-07-29T13:30:48;99761.00;;;24.60
80581;BMP180;1474;51.460;7.150;2023-07-29T13:33:13;99757.00;;;24.30
80581;BMP180;1474;51.460;7.150;2023-07-29T13:35:39;99765.00;;;24.20
80581;BMP180;1474;51.460;7.150;2023-07-29T13:38:05;99761.00;;;24.20
80581;BMP180;1474;51.460;7.150;2023-07-29T13:40:32;99771.00;;;23.80
80581;BMP180;1474;51.460;7.150;2023-07-29T13:42:57;99771.00;;;23.60
80581;BMP180;1474;51.460;7.150;2023-07-29T13:45:23;99773.00;;;23.30
80581;BMP180;1474;51.460;7.150;2023-07-29T13:47:50;99772.00;;;23.10
80581;BMP180;1474;51.460;7.150;2023-07-29T13:50:17;99780.00;;;22.70
80581;BMP180;1474;51.460;7.150;2023-07-29T13:52:43;99778.00;;;22.80
80581;BMP180;1474;51.460;7.150;2023-07-29T13:55:09;99781.00;;;22.60
80581;BMP180;1474;51.460;7.150;2023-07-29T13:57:37;99780.00;;;22.40
80581;BMP180;1474;51.460;7.150;2023-07-29T14:00:05;99798.00;;;22.30
80581;BMP180;1474;51.460;7.150;2023-07-29T14:02:35;99800.00;;;22.40
80581;BMP180;1474;51.460;7.150;2023-07-29T14:05:01;99792.00;;;22.20
80581;BMP180;1474;51.460;7.150;2023-07-29T14:07:27;99796.00;;;22.10
80581;BMP180;1474;51.460;7.150;2023-07-29T14:09:52;99805.00;;;21.70
80581;BMP180;1474;51.460;7.150;2023-07-29T14:12:18;99832.00;;;21.40
80581;BMP180;1474;51.460;7.150;2023-07-29T14:14:44;99834.00;;;20.60
80581;BMP180;1474;51.460;7.150;2023-07-29T14:17:10;99847.00;;;20.10
80581;BMP180;1474;51.460;7.150;2023-07-29T14:19:39;99843.00;;;19.70
80581;BMP180;1474;51.460;7.150;2023-07-29T14:22:05;99832.00;;;19.50
80581;BMP180;1474;51.460;7.150;2023-07-29T14:24:31;99843.00;;;19.40
80581;BMP180;1474;51.460;7.150;2023-07-29T14:26:57;99847.00;;;19.40
80581;BMP180;1474;51.460;7.150;2023-07-29T14:29:23;99858.00;;;19.30
80581;BMP180;1474;51.460;7.150;2023-07-29T14:31:49;99869.00;;;19.50
80581;BMP180;1474;51.460;7.150;2023-07-29T14:34:14;99876.00;;;19.30
80581;BMP180;1474;51.460;7.150;2023-07-29T14:36:40;99885.00;;;19.00
80581;BMP180;1474;51.460;7.150;2023-07-29T14:39:07;99871.00;;;19.20
80581;BMP180;1474;51.460;7.150;2023-07-29T14:41:33;99863.00;;;19.60
80581;BMP180;1474;51.460;7.150;2023-07-29T14:43:59;99861.00;;;19.70
80581;BMP180;1474;51.460;7.150;2023-07-29T14:46:24;99848.00;;;19.80